createdAt,value
2018-11-12T00:00:46.918Z,63.77
2018-11-12T00:03:16.299Z,65.00
2018-11-12T00:05:45.083Z,61.63
2018-11-12T00:08:13.862Z,64.10
2018-11-12T00:10:43.005Z,64.90
2018-11-12T00:13:11.777Z,62.37
2018-11-12T00:15:40.586Z,68.23
2018-11-12T00:18:09.351Z,66.20
2018-11-12T00:20:38.108Z,62.33
2018-11-12T00:23:06.977Z,65.90
2018-11-12T00:25:35.739Z,64.50
2018-11-12T00:28:04.502Z,65.20
2018-11-12T00:30:33.339Z,58.57
2018-11-12T00:33:02.130Z,58.87
2018-11-12T00:35:30.914Z,60.93
2018-11-12T00:37:59.658Z,61.83
2018-11-12T00:40:28.491Z,60.07
2018-11-12T00:42:57.291Z,58.97
2018-11-12T00:45:26.062Z,58.30
2018-11-12T00:47:54.860Z,57.00
2018-11-12T00:50:23.626Z,57.53
2018-11-12T00:52:52.414Z,57.17
2018-11-12T00:55:21.182Z,54.07
2018-11-12T00:57:49.961Z,56.43
2018-11-12T01:00:20.047Z,61.20
2018-11-12T01:02:49.885Z,52.63
2018-11-12T01:05:19.431Z,53.13
2018-11-12T01:07:48.687Z,53.60
2018-11-12T01:10:18.475Z,50.07
2018-11-12T01:12:47.876Z,51.23
2018-11-12T01:15:17.965Z,52.43
2018-11-12T01:17:46.840Z,51.77
2018-11-12T01:20:16.579Z,50.93
2018-11-12T01:22:45.441Z,50.80
2018-11-12T01:25:14.768Z,52.43
2018-11-12T01:27:44.260Z,52.57
2018-11-12T01:30:15.468Z,54.83
2018-11-12T01:32:44.412Z,54.10
2018-11-12T01:35:14.220Z,60.80
2018-11-12T01:37:43.223Z,64.03
2018-11-12T01:40:13.010Z,76.27
2018-11-12T01:42:42.327Z,67.33
2018-11-12T01:45:14.678Z,70.77
2018-11-12T01:47:44.728Z,70.60
2018-11-12T01:50:13.965Z,75.83
2018-11-12T01:52:43.534Z,58.90
2018-11-12T01:55:13.522Z,61.00
2018-11-12T01:57:42.537Z,53.67
2018-11-12T02:00:19.470Z,49.10
2018-11-12T02:02:49.467Z,48.90
2018-11-12T02:05:18.783Z,53.77
2018-11-12T02:07:47.618Z,49.93
2018-11-12T02:10:17.579Z,49.87
2018-11-12T02:12:46.738Z,48.70
2018-11-12T02:15:16.951Z,47.73
2018-11-12T02:17:46.645Z,49.40
2018-11-12T02:20:16.596Z,55.83
2018-11-12T02:22:46.266Z,51.70
2018-11-12T02:25:15.874Z,50.53
2018-11-12T02:27:44.684Z,56.73
2018-11-12T02:30:48.717Z,65.33
2018-11-12T02:33:18.291Z,76.83
2018-11-12T02:35:47.218Z,66.20
2018-11-12T02:38:15.988Z,66.70
2018-11-12T02:40:44.795Z,64.80
2018-11-12T02:43:13.543Z,57.30
2018-11-12T02:45:42.739Z,70.03
2018-11-12T02:48:11.564Z,68.27
2018-11-12T02:50:40.352Z,62.63
2018-11-12T02:53:09.163Z,68.57
2018-11-12T02:55:38.048Z,48.03
2018-11-12T02:58:06.873Z,61.17
2018-11-12T03:00:35.651Z,57.17
2018-11-12T03:03:04.467Z,53.67
2018-11-12T03:05:33.260Z,49.47
2018-11-12T03:08:02.047Z,49.83
2018-11-12T03:10:30.803Z,47.93
2018-11-12T03:12:59.567Z,46.47
2018-11-12T03:15:28.370Z,48.57
2018-11-12T03:17:57.149Z,51.20
2018-11-12T03:20:25.915Z,48.27
2018-11-12T03:22:54.642Z,50.37
2018-11-12T03:25:23.468Z,49.13
2018-11-12T03:27:52.525Z,44.40
2018-11-12T03:30:22.471Z,48.27
2018-11-12T03:32:52.000Z,49.13
2018-11-12T03:35:20.808Z,47.60
2018-11-12T03:37:50.406Z,53.20
2018-11-12T03:40:21.343Z,51.40
2018-11-12T03:42:50.754Z,56.43
2018-11-12T03:45:22.544Z,55.07
2018-11-12T03:47:51.511Z,52.57
2018-11-12T03:50:21.841Z,52.03
2018-11-12T03:52:50.641Z,60.33
2018-11-12T03:55:20.553Z,52.33
2018-11-12T03:57:49.366Z,54.20
2018-11-12T04:00:21.045Z,48.77
2018-11-12T04:02:50.410Z,51.80
2018-11-12T04:05:19.183Z,53.67
2018-11-12T04:07:47.947Z,51.07
2018-11-12T04:10:19.776Z,48.93
2018-11-12T04:12:48.580Z,48.70
2018-11-12T04:15:18.855Z,49.90
2018-11-12T04:17:47.653Z,45.63
2018-11-12T04:20:17.721Z,49.53
2018-11-12T04:22:51.675Z,46.50
2018-11-12T04:25:20.579Z,48.67
2018-11-12T04:27:49.350Z,47.63
2018-11-12T04:30:18.158Z,47.67
2018-11-12T04:32:47.429Z,57.00
2018-11-12T04:35:16.202Z,55.97
2018-11-12T04:37:45.015Z,44.97
2018-11-12T04:40:15.739Z,48.80
2018-11-12T04:42:44.810Z,49.07
2018-11-12T04:45:14.802Z,52.13
2018-11-12T04:47:44.574Z,46.47
2018-11-12T04:50:15.590Z,53.20
2018-11-12T04:52:44.428Z,54.97
2018-11-12T04:55:15.361Z,61.47
2018-11-12T04:57:44.814Z,62.60
2018-11-12T05:00:17.720Z,61.83
2018-11-12T05:02:46.594Z,59.50
2018-11-12T05:05:16.753Z,62.73
2018-11-12T05:07:45.833Z,53.50
2018-11-12T05:10:16.156Z,52.07
2018-11-12T05:12:45.486Z,50.87
2018-11-12T05:15:16.014Z,51.47
2018-11-12T05:17:44.804Z,57.43
2018-11-12T05:20:16.526Z,59.43
2018-11-12T05:22:45.313Z,57.23
2018-11-12T05:25:14.070Z,57.03
2018-11-12T05:27:42.836Z,64.53
2018-11-12T05:30:16.315Z,59.63
2018-11-12T05:32:45.168Z,59.67
2018-11-12T05:35:15.104Z,62.77
2018-11-12T05:37:44.161Z,56.97
2018-11-12T05:40:15.932Z,60.10
2018-11-12T05:42:44.949Z,52.97
2018-11-12T05:45:15.133Z,51.80
2018-11-12T05:47:44.018Z,63.30
2018-11-12T05:50:18.317Z,58.23
2018-11-12T05:52:48.730Z,54.17
2018-11-12T05:55:19.047Z,53.47
2018-11-12T05:57:48.305Z,56.40
2018-11-12T06:00:19.147Z,54.83
2018-11-12T06:02:47.971Z,59.20
2018-11-12T06:05:17.232Z,56.70
2018-11-12T06:07:45.977Z,58.40
2018-11-12T06:10:16.879Z,62.43
2018-11-12T06:12:45.890Z,59.60
2018-11-12T06:15:14.995Z,62.50
2018-11-12T06:17:44.497Z,58.57
2018-11-12T06:20:16.710Z,63.37
2018-11-12T06:22:45.942Z,60.77
2018-11-12T06:25:16.140Z,56.07
2018-11-12T06:27:44.922Z,60.17
2018-11-12T06:30:21.799Z,56.00
2018-11-12T06:32:50.726Z,60.80
2018-11-12T06:35:20.126Z,62.63
2018-11-12T06:37:49.881Z,57.47
2018-11-12T06:40:19.938Z,65.50
2018-11-12T06:42:48.817Z,60.50
2018-11-12T06:45:19.718Z,52.80
2018-11-12T06:47:49.312Z,51.50
2018-11-12T06:50:19.524Z,53.63
2018-11-12T06:52:48.437Z,49.17
2018-11-12T06:55:18.022Z,52.87
2018-11-12T06:57:47.135Z,58.47
2018-11-12T07:00:18.282Z,54.93
2018-11-12T07:02:47.084Z,55.43
2018-11-12T07:05:16.122Z,59.53
2018-11-12T07:07:44.935Z,50.10
2018-11-12T07:10:15.052Z,57.37
2018-11-12T07:12:44.761Z,52.67
2018-11-12T07:15:14.983Z,52.93
2018-11-12T07:17:45.523Z,50.50
2018-11-12T07:20:17.743Z,53.43
2018-11-12T07:22:46.648Z,53.70
2018-11-12T07:25:16.490Z,45.90
2018-11-12T07:27:45.437Z,60.00
2018-11-12T07:30:18.452Z,59.07
2018-11-12T07:32:47.850Z,51.10
2018-11-12T07:35:17.254Z,53.60
2018-11-12T07:37:47.169Z,57.67
2018-11-12T07:40:16.790Z,57.47
2018-11-12T07:42:45.671Z,57.50
2018-11-12T07:45:15.726Z,58.87
2018-11-12T07:47:45.463Z,49.63
2018-11-12T07:50:16.997Z,53.77
2018-11-12T07:52:45.991Z,50.73
2018-11-12T07:55:16.940Z,54.60
2018-11-12T07:57:46.634Z,51.70
2018-11-12T08:00:17.846Z,50.20
2018-11-12T08:02:47.593Z,49.40
2018-11-12T08:05:16.703Z,46.97
2018-11-12T08:07:45.745Z,52.27
2018-11-12T08:10:17.167Z,44.67
2018-11-12T08:12:46.345Z,48.17
2018-11-12T08:15:16.523Z,44.23
2018-11-12T08:17:45.449Z,41.87
2018-11-12T08:20:15.734Z,41.50
2018-11-12T08:22:45.653Z,42.97
2018-11-12T08:25:14.523Z,44.43
2018-11-12T08:27:43.845Z,49.27
2018-11-12T08:30:14.967Z,59.20
2018-11-12T08:32:44.809Z,54.73
2018-11-12T08:35:14.255Z,51.03
2018-11-12T08:37:43.639Z,56.97
2018-11-12T08:40:13.903Z,59.90
2018-11-12T08:42:43.567Z,61.63
2018-11-12T08:45:13.251Z,60.23
2018-11-12T08:47:43.177Z,62.63
2018-11-12T08:50:14.135Z,80.40
2018-11-12T08:52:44.043Z,71.67
2018-11-12T08:55:14.610Z,83.77
2018-11-12T08:57:45.218Z,77.33
2018-11-12T09:00:14.714Z,84.63
2018-11-12T09:02:43.673Z,76.33
2018-11-12T09:05:13.760Z,70.17
2018-11-12T09:07:43.838Z,72.10
2018-11-12T09:10:14.788Z,69.90
2018-11-12T09:12:44.451Z,72.70
2018-11-12T09:15:14.026Z,71.50
2018-11-12T09:17:43.634Z,77.97
2018-11-12T09:20:15.150Z,69.20
2018-11-12T09:22:43.979Z,75.07
2018-11-12T09:25:14.673Z,69.80
2018-11-12T09:27:43.590Z,73.03
2018-11-12T09:30:19.726Z,77.27
2018-11-12T09:32:48.654Z,71.70
2018-11-12T09:35:22.961Z,73.27
2018-11-12T09:37:52.671Z,73.90
2018-11-12T09:40:28.726Z,69.63
2018-11-12T09:42:57.584Z,82.53
2018-11-12T09:45:26.996Z,76.27
2018-11-12T09:47:55.901Z,73.03
2018-11-12T09:50:25.818Z,75.93
2018-11-12T09:52:56.123Z,81.73
2018-11-12T09:55:26.662Z,82.87
2018-11-12T09:57:57.745Z,73.33
2018-11-12T10:00:26.780Z,87.93
2018-11-12T10:02:56.208Z,78.10
2018-11-12T10:05:26.480Z,68.20
2018-11-12T10:07:58.477Z,75.50
2018-11-12T10:10:36.070Z,68.93
2018-11-12T10:13:04.867Z,74.73
2018-11-12T10:15:35.921Z,77.07
2018-11-12T10:18:03.798Z,75.30
2018-11-12T10:20:30.210Z,72.43
2018-11-12T10:22:59.015Z,72.73
2018-11-12T10:25:27.805Z,71.60
2018-11-12T10:27:56.577Z,67.57
2018-11-12T10:30:25.392Z,65.90
2018-11-12T10:32:54.154Z,75.23
2018-11-12T10:35:22.977Z,71.73
2018-11-12T10:37:51.855Z,69.17
2018-11-12T10:40:22.715Z,76.43
2018-11-12T10:42:51.562Z,82.23
2018-11-12T10:45:20.652Z,73.87
2018-11-12T10:47:50.515Z,70.80
2018-11-12T10:50:20.022Z,71.70
2018-11-12T10:52:48.828Z,68.47
2018-11-12T10:55:20.020Z,69.90
2018-11-12T10:57:49.323Z,80.23
2018-11-12T11:00:38.836Z,67.37
2018-11-12T11:03:15.084Z,76.17
2018-11-12T11:05:46.231Z,74.33
2018-11-12T11:08:15.076Z,73.07
2018-11-12T11:10:44.044Z,77.60
2018-11-12T11:13:12.878Z,80.17
2018-11-12T11:15:41.714Z,75.27
2018-11-12T11:18:10.993Z,73.03
2018-11-12T11:20:39.776Z,71.60
2018-11-12T11:23:08.513Z,68.93
2018-11-12T11:28:28.076Z,70.47
2018-11-12T11:30:56.925Z,72.03
2018-11-12T11:33:25.836Z,78.53
2018-11-12T11:35:54.839Z,67.67
2018-11-12T11:38:23.687Z,69.90
2018-11-12T11:40:52.468Z,69.23
2018-11-12T11:43:21.440Z,68.80
2018-11-12T11:45:50.227Z,62.37
2018-11-12T11:48:19.110Z,68.83
2018-11-12T11:50:48.071Z,64.47
2018-11-12T11:53:16.945Z,64.27
2018-11-12T11:55:46.007Z,64.33
2018-11-12T11:58:14.848Z,69.37
2018-11-12T12:00:43.658Z,67.03
2018-11-12T12:03:12.453Z,61.63
2018-11-12T12:05:41.262Z,68.27
2018-11-12T12:08:10.122Z,67.67
2018-11-12T12:10:39.011Z,68.50
2018-11-12T12:13:07.784Z,67.87
2018-11-12T12:15:36.551Z,70.17
2018-11-12T12:18:05.395Z,64.17
2018-11-12T12:20:34.251Z,65.20
2018-11-12T12:23:03.062Z,64.47
2018-11-12T12:25:31.832Z,57.90
2018-11-12T12:28:00.797Z,62.27
2018-11-12T12:30:29.746Z,60.90
2018-11-12T12:32:59.039Z,60.57
2018-11-12T12:35:27.852Z,62.47
2018-11-12T12:37:56.802Z,54.73
2018-11-12T12:40:26.236Z,57.27
2018-11-12T12:42:55.081Z,56.43
2018-11-12T12:45:25.343Z,57.97
2018-11-12T12:47:54.969Z,52.07
2018-11-12T12:50:23.734Z,45.43
2018-11-12T12:52:52.481Z,52.43
2018-11-12T12:55:21.329Z,50.63
2018-11-12T12:57:50.387Z,51.17
2018-11-12T13:00:21.941Z,47.50
2018-11-12T13:02:50.703Z,51.60
2018-11-12T13:05:19.502Z,48.10
2018-11-12T13:07:48.270Z,49.73
2018-11-12T13:10:18.567Z,49.40
2018-11-12T13:12:47.381Z,51.20
2018-11-12T13:15:17.336Z,49.07
2018-11-12T13:17:46.986Z,43.83
2018-11-12T13:20:17.268Z,43.10
2018-11-12T13:22:46.806Z,43.87
2018-11-12T13:25:16.213Z,38.50
2018-11-12T13:27:45.675Z,46.97
2018-11-12T13:30:17.567Z,45.27
2018-11-12T13:32:46.779Z,43.53
2018-11-12T13:35:16.985Z,38.43
2018-11-12T13:37:45.768Z,42.27
2018-11-12T13:40:17.430Z,51.07
2018-11-12T13:42:47.947Z,40.27
2018-11-12T13:45:16.744Z,47.00
2018-11-12T13:47:45.958Z,44.13
2018-11-12T13:50:16.873Z,42.53
2018-11-12T13:52:46.188Z,43.17
2018-11-12T13:55:16.095Z,39.57
2018-11-12T13:57:44.887Z,41.33
2018-11-12T14:00:17.044Z,42.07
2018-11-12T14:02:46.996Z,43.70
2018-11-12T14:05:17.220Z,40.70
2018-11-12T14:07:46.273Z,41.50
2018-11-12T14:10:17.220Z,38.80
2018-11-12T14:12:46.339Z,38.23
2018-11-12T14:15:18.389Z,41.63
2018-11-12T14:17:47.790Z,43.57
2018-11-12T14:20:16.732Z,37.13
2018-11-12T14:22:45.634Z,37.80
2018-11-12T14:25:15.706Z,34.53
2018-11-12T14:27:45.202Z,35.30
2018-11-12T14:30:16.578Z,47.43
2018-11-12T14:32:45.385Z,46.73
2018-11-12T14:35:14.784Z,42.47
2018-11-12T14:37:44.659Z,42.23
2018-11-12T14:40:14.533Z,39.37
2018-11-12T14:42:43.414Z,39.30
2018-11-12T14:45:13.832Z,47.83
2018-11-12T14:47:43.304Z,42.60
2018-11-12T14:50:12.859Z,41.17
2018-11-12T14:52:41.703Z,46.20
2018-11-12T14:55:12.179Z,34.07
2018-11-12T14:57:41.332Z,43.17
2018-11-12T15:00:17.154Z,49.10
2018-11-12T15:02:46.072Z,40.77
2018-11-12T15:05:15.460Z,38.03
2018-11-12T15:07:44.292Z,40.13
2018-11-12T15:10:13.996Z,40.80
2018-11-12T15:12:43.365Z,40.67
2018-11-12T15:15:12.686Z,41.80
2018-11-12T15:17:41.734Z,35.90
2018-11-12T15:20:13.708Z,35.57
2018-11-12T15:22:42.557Z,37.70
2018-11-12T15:25:16.262Z,40.23
2018-11-12T15:27:45.588Z,38.73
2018-11-12T15:30:18.061Z,39.83
2018-11-12T15:32:47.826Z,44.30
2018-11-12T15:35:16.638Z,49.43
2018-11-12T15:37:46.225Z,50.10
2018-11-12T15:40:15.560Z,45.40
2018-11-12T15:42:44.339Z,45.70
2018-11-12T15:45:24.993Z,49.27
2018-11-12T15:47:53.834Z,48.17
2018-11-12T15:50:30.794Z,62.73
2018-11-12T15:52:59.629Z,56.50
2018-11-12T15:55:28.519Z,65.40
2018-11-12T15:57:57.456Z,50.20
2018-11-12T16:00:26.454Z,49.17
2018-11-12T16:02:55.249Z,50.83
2018-11-12T16:05:24.093Z,47.80
2018-11-12T16:07:52.912Z,45.97
2018-11-12T16:10:22.578Z,44.33
2018-11-12T16:12:51.782Z,57.53
2018-11-12T16:15:21.530Z,46.53
2018-11-12T16:17:50.392Z,39.83
2018-11-12T16:20:24.491Z,47.40
2018-11-12T16:22:53.676Z,43.33
2018-11-12T16:25:23.038Z,45.50
2018-11-12T16:27:51.853Z,52.27
2018-11-12T16:30:23.195Z,45.70
2018-11-12T16:32:51.996Z,49.60
2018-11-12T16:35:22.522Z,42.60
2018-11-12T16:37:52.240Z,44.83
2018-11-12T16:40:21.089Z,46.00
2018-11-12T16:42:50.772Z,44.57
2018-11-12T16:45:19.579Z,57.13
2018-11-12T16:47:48.834Z,54.43
2018-11-12T16:50:18.360Z,59.53
2018-11-12T16:52:47.414Z,54.57
2018-11-12T16:55:18.070Z,50.60
2018-11-12T16:57:47.098Z,51.40
2018-11-12T17:00:19.562Z,41.90
2018-11-12T17:02:48.970Z,48.63
2018-11-12T17:05:19.098Z,52.67
2018-11-12T17:07:47.856Z,47.40
2018-11-12T17:10:18.022Z,53.50
2018-11-12T17:12:47.477Z,50.87
2018-11-12T17:15:16.927Z,60.37
2018-11-12T17:17:45.958Z,55.17
2018-11-12T17:20:16.142Z,44.83
2018-11-12T17:22:45.366Z,45.43
2018-11-12T17:25:15.122Z,46.20
2018-11-12T17:27:44.540Z,43.67
2018-11-12T17:30:18.229Z,46.07
2018-11-12T17:32:47.529Z,41.13
2018-11-12T17:35:17.738Z,49.43
2018-11-12T17:37:46.480Z,38.17
2018-11-12T17:40:19.543Z,47.80
2018-11-12T17:42:49.256Z,46.67
2018-11-12T17:45:19.346Z,54.23
2018-11-12T17:47:49.287Z,56.17
2018-11-12T17:50:18.196Z,51.93
2018-11-12T17:52:47.136Z,51.33
2018-11-12T17:55:15.970Z,57.20
2018-11-12T17:57:44.848Z,70.97
2018-11-12T18:00:25.878Z,76.67
2018-11-12T18:02:54.741Z,59.50
2018-11-12T18:05:23.536Z,70.00
2018-11-12T18:07:52.373Z,60.33
2018-11-12T18:10:21.399Z,71.60
2018-11-12T18:12:50.233Z,66.07
2018-11-12T18:15:20.370Z,65.50
2018-11-12T18:17:49.366Z,68.03
2018-11-12T18:20:23.359Z,71.70
2018-11-12T18:22:53.408Z,67.90
2018-11-12T18:25:22.367Z,77.80
2018-11-12T18:27:51.212Z,75.83
2018-11-12T18:30:22.101Z,64.73
2018-11-12T18:32:56.079Z,81.20
2018-11-12T18:35:29.545Z,77.80
2018-11-12T18:37:58.566Z,78.00
2018-11-12T18:40:31.256Z,66.83
2018-11-12T18:43:03.488Z,82.40
2018-11-12T18:45:32.344Z,84.97
2018-11-12T18:48:01.271Z,72.97
2018-11-12T18:50:31.161Z,80.30
2018-11-12T18:52:59.990Z,89.30
2018-11-12T18:55:28.838Z,84.60
2018-11-12T18:57:57.933Z,82.60
2018-11-12T19:00:27.317Z,77.00
2018-11-12T19:02:56.372Z,83.63
2018-11-12T19:05:27.507Z,74.97
2018-11-12T19:07:58.247Z,82.47
2018-11-12T19:10:30.145Z,82.87
2018-11-12T19:12:59.423Z,79.30
2018-11-12T19:15:29.741Z,92.17
2018-11-12T19:18:00.346Z,81.40
2018-11-12T19:20:29.186Z,90.37
2018-11-12T19:22:57.994Z,88.67
2018-11-12T19:25:26.782Z,85.00
2018-11-12T19:27:55.570Z,82.57
2018-11-12T19:30:25.773Z,80.97
2018-11-12T19:32:55.002Z,79.53
2018-11-12T19:35:25.147Z,76.77
2018-11-12T19:37:53.988Z,77.47
2018-11-12T19:40:24.270Z,74.70
2018-11-12T19:42:53.970Z,77.20
2018-11-12T19:45:22.910Z,61.03
2018-11-12T19:47:52.968Z,76.80
2018-11-12T19:50:23.041Z,75.83
2018-11-12T19:52:53.148Z,74.97
2018-11-12T19:55:21.975Z,60.30
2018-11-12T19:57:50.899Z,70.47
2018-11-12T20:00:22.823Z,61.37
2018-11-12T20:02:52.830Z,69.67
2018-11-12T20:05:21.634Z,70.80
2018-11-12T20:07:50.779Z,71.70
2018-11-12T20:10:20.819Z,78.77
2018-11-12T20:12:49.680Z,78.10
2018-11-12T20:15:19.823Z,81.80
2018-11-12T20:17:49.378Z,75.13
2018-11-12T20:20:20.774Z,73.30
2018-11-12T20:22:50.240Z,67.90
2018-11-12T20:25:19.824Z,73.37
2018-11-12T20:27:49.289Z,77.87
2018-11-12T20:30:26.717Z,77.97
2018-11-12T20:32:55.536Z,66.63
2018-11-12T20:35:24.449Z,68.07
2018-11-12T20:37:53.534Z,70.97
2018-11-12T20:40:22.307Z,71.43
2018-11-12T20:42:51.159Z,74.20
2018-11-12T20:45:20.847Z,72.80
2018-11-12T20:47:51.197Z,66.60
2018-11-12T20:50:20.250Z,66.00
2018-11-12T20:52:49.100Z,72.73
2018-11-12T20:55:18.575Z,66.17
2018-11-12T20:57:47.660Z,67.70
2018-11-12T21:00:21.481Z,65.33
2018-11-12T21:02:51.382Z,69.83
2018-11-12T21:05:23.146Z,69.57
2018-11-12T21:07:51.958Z,71.77
2018-11-12T21:10:21.452Z,70.10
2018-11-12T21:12:50.708Z,70.87
2018-11-12T21:15:20.591Z,70.47
2018-11-12T21:17:49.408Z,71.03
2018-11-12T21:20:20.477Z,67.97
2018-11-12T21:22:49.386Z,75.53
2018-11-12T21:25:19.607Z,64.97
2018-11-12T21:27:48.446Z,69.53
2018-11-12T21:30:19.737Z,70.20
2018-11-12T21:32:48.834Z,71.93
2018-11-12T21:35:17.666Z,71.90
2018-11-12T21:37:46.851Z,64.70
2018-11-12T21:40:17.027Z,69.53
2018-11-12T21:42:46.023Z,74.23
2018-11-12T21:45:17.146Z,68.50
2018-11-12T21:47:46.098Z,68.73
2018-11-12T21:50:16.578Z,67.00
2018-11-12T21:52:45.399Z,69.87
2018-11-12T21:55:14.479Z,66.17
2018-11-12T21:57:43.824Z,60.30
2018-11-12T22:00:17.633Z,63.53
2018-11-12T22:02:48.515Z,63.43
2018-11-12T22:05:17.679Z,63.40
2018-11-12T22:07:46.504Z,59.70
2018-11-12T22:10:16.118Z,77.87
2018-11-12T22:12:46.266Z,74.17
2018-11-12T22:15:15.127Z,63.40
2018-11-12T22:17:44.004Z,71.67
2018-11-12T22:20:14.042Z,68.37
2018-11-12T22:22:43.329Z,61.17
2018-11-12T22:25:13.650Z,69.33
2018-11-12T22:27:42.882Z,65.43
2018-11-12T22:30:16.080Z,60.37
2018-11-12T22:32:46.162Z,69.70
2018-11-12T22:35:15.012Z,68.53
2018-11-12T22:37:44.510Z,80.60
2018-11-12T22:40:14.395Z,67.50
2018-11-12T22:42:43.985Z,55.77
2018-11-12T22:45:15.963Z,63.47
2018-11-12T22:47:45.626Z,59.37
2018-11-12T22:50:14.350Z,56.87
2018-11-12T22:52:43.846Z,75.13
2018-11-12T22:55:13.894Z,87.20
2018-11-12T22:57:42.667Z,73.70
2018-11-12T23:00:19.938Z,75.57
2018-11-12T23:02:49.541Z,71.43
2018-11-12T23:05:19.189Z,89.47
2018-11-12T23:07:48.600Z,97.00
2018-11-12T23:10:17.898Z,88.50
2018-11-12T23:12:46.775Z,73.00
2018-11-12T23:15:15.961Z,57.23
2018-11-12T23:17:44.768Z,56.73
2018-11-12T23:20:19.802Z,66.77
2018-11-12T23:22:49.206Z,59.93
2018-11-12T23:25:18.071Z,58.27
2018-11-12T23:27:47.443Z,59.10
2018-11-12T23:30:17.537Z,60.63
2018-11-12T23:32:46.348Z,61.93
2018-11-12T23:35:16.423Z,59.67
2018-11-12T23:37:45.832Z,66.27
2018-11-12T23:40:15.035Z,64.07
2018-11-12T23:42:44.432Z,56.83
2018-11-12T23:45:13.230Z,62.17
2018-11-12T23:47:42.043Z,59.13
2018-11-12T23:50:18.015Z,59.53
2018-11-12T23:52:47.660Z,64.93
2018-11-12T23:55:16.560Z,67.23
2018-11-12T23:57:46.323Z,65.53
